sensor_id;sensor_type;location;lat;lon;timestamp;pressure;altitude;pressure_sealevel;temperature;humidity
27980;BME280;15315;50.836;4.430;2023-06-14T00:01:15;100766.72;;;26.29;35.27
27980;BME280;15315;50.836;4.430;2023-06-14T00:11:15;100769.91;;;26.19;35.23
27980;BME280;15315;50.836;4.430;2023-06-14T00:21:15;100773.59;;;25.79;36.30
27980;BME280;15315;50.836;4.430;2023-06-14T00:31:16;100766.41;;;25.98;35.48
27980;BME280;15315;50.836;4.430;2023-06-14T00:41:16;100773.63;;;25.51;36.09
27980;BME280;15315;50.836;4.430;2023-06-14T00:51:17;100774.56;;;25.31;36.65
27980;BME280;15315;50.836;4.430;2023-06-14T01:01:17;100781.91;;;25.51;36.67
27980;BME280;15315;50.836;4.430;2023-06-14T01:11:30;100774.91;;;25.55;37.52
27980;BME280;15315;50.836;4.430;2023-06-14T01:21:32;100777.84;;;25.19;38.24
27980;BME280;15315;50.836;4.430;2023-06-14T01:31:41;100780.13;;;24.88;38.50
27980;BME280;15315;50.836;4.430;2023-06-14T01:41:43;100782.91;;;24.67;38.36
27980;BME280;15315;50.836;4.430;2023-06-14T01:51:44;100801.59;;;24.50;38.50
27980;BME280;15315;50.836;4.430;2023-06-14T02:01:44;100796.72;;;24.31;38.89
27980;BME280;15315;50.836;4.430;2023-06-14T02:11:46;100788.09;;;23.84;39.42
27980;BME280;15315;50.836;4.430;2023-06-14T02:21:47;100784.28;;;23.70;39.85
27980;BME280;15315;50.836;4.430;2023-06-14T02:31:47;100793.72;;;23.61;39.88
27980;BME280;15315;50.836;4.430;2023-06-14T02:41:49;100788.50;;;22.62;41.80
27980;BME280;15315;50.836;4.430;2023-06-14T02:51:50;100794.09;;;22.69;41.80
27980;BME280;15315;50.836;4.430;2023-06-14T03:01:50;100791.69;;;22.66;41.78
27980;BME280;15315;50.836;4.430;2023-06-14T03:11:51;100800.03;;;22.80;41.64
27980;BME280;15315;50.836;4.430;2023-06-14T03:21:52;100806.25;;;22.52;42.37
27980;BME280;15315;50.836;4.430;2023-06-14T03:32:01;100820.72;;;22.46;42.29
27980;BME280;15315;50.836;4.430;2023-06-14T03:42:03;100819.53;;;22.09;43.07
27980;BME280;15315;50.836;4.430;2023-06-14T03:52:03;100836.50;;;22.21;43.25
27980;BME280;15315;50.836;4.430;2023-06-14T04:02:04;100837.97;;;22.01;43.83
27980;BME280;15315;50.836;4.430;2023-06-14T04:12:05;100849.88;;;22.55;42.84
27980;BME280;15315;50.836;4.430;2023-06-14T04:22:06;100862.91;;;22.53;43.21
27980;BME280;15315;50.836;4.430;2023-06-14T04:32:07;100860.59;;;22.42;43.66
27980;BME280;15315;50.836;4.430;2023-06-14T04:42:10;100866.88;;;22.73;43.29
27980;BME280;15315;50.836;4.430;2023-06-14T04:52:13;100870.66;;;23.03;42.82
27980;BME280;15315;50.836;4.430;2023-06-14T05:02:13;100874.94;;;23.05;42.87
27980;BME280;15315;50.836;4.430;2023-06-14T05:12:14;100884.56;;;23.01;42.97
27980;BME280;15315;50.836;4.430;2023-06-14T05:22:18;100886.25;;;22.88;42.95
27980;BME280;15315;50.836;4.430;2023-06-14T05:32:18;100885.31;;;23.32;42.62
27980;BME280;15315;50.836;4.430;2023-06-14T05:42:19;100893.25;;;23.50;42.45
27980;BME280;15315;50.836;4.430;2023-06-14T05:52:20;100903.31;;;23.20;43.10
27980;BME280;15315;50.836;4.430;2023-06-14T06:02:20;100906.72;;;23.45;42.56
27980;BME280;15315;50.836;4.430;2023-06-14T06:12:21;100912.38;;;23.81;42.40
27980;BME280;15315;50.836;4.430;2023-06-14T06:22:21;100910.13;;;24.14;42.11
27980;BME280;15315;50.836;4.430;2023-06-14T06:32:22;100920.47;;;23.97;42.16
27980;BME280;15315;50.836;4.430;2023-06-14T06:42:22;100918.13;;;24.59;41.38
27980;BME280;15315;50.836;4.430;2023-06-14T06:52:22;100920.13;;;24.65;40.72
27980;BME280;15315;50.836;4.430;2023-06-14T07:02:23;100929.16;;;24.59;40.73
27980;BME280;15315;50.836;4.430;2023-06-14T07:12:23;100929.03;;;25.03;40.10
27980;BME280;15315;50.836;4.430;2023-06-14T07:22:24;100941.34;;;25.21;39.10
27980;BME280;15315;50.836;4.430;2023-06-14T07:32:24;100943.44;;;25.41;39.33
27980;BME280;15315;50.836;4.430;2023-06-14T07:42:25;100948.22;;;25.53;38.71
27980;BME280;15315;50.836;4.430;2023-06-14T07:52:25;100939.28;;;26.07;38.04
27980;BME280;15315;50.836;4.430;2023-06-14T08:02:26;100939.59;;;26.25;38.26
27980;BME280;15315;50.836;4.430;2023-06-14T08:12:26;100942.03;;;26.41;39.73
27980;BME280;15315;50.836;4.430;2023-06-14T08:22:27;100930.22;;;26.19;39.26
27980;BME280;15315;50.836;4.430;2023-06-14T08:32:29;100944.19;;;26.45;40.14
27980;BME280;15315;50.836;4.430;2023-06-14T08:42:29;100945.88;;;26.40;40.69
27980;BME280;15315;50.836;4.430;2023-06-14T08:52:33;100951.75;;;25.96;40.16
27980;BME280;15315;50.836;4.430;2023-06-14T09:02:41;100952.72;;;26.16;39.79
27980;BME280;15315;50.836;4.430;2023-06-14T09:12:43;100964.84;;;26.49;39.51
27980;BME280;15315;50.836;4.430;2023-06-14T09:22:44;100982.81;;;26.73;39.64
27980;BME280;15315;50.836;4.430;2023-06-14T09:32:45;100979.66;;;26.89;39.60
27980;BME280;15315;50.836;4.430;2023-06-14T09:42:45;100988.78;;;26.36;37.13
27980;BME280;15315;50.836;4.430;2023-06-14T09:52:47;100990.44;;;27.25;36.66
27980;BME280;15315;50.836;4.430;2023-06-14T10:02:54;100995.75;;;27.07;36.65
27980;BME280;15315;50.836;4.430;2023-06-14T10:12:59;100993.06;;;27.46;36.56
27980;BME280;15315;50.836;4.430;2023-06-14T10:23:06;100995.53;;;27.15;36.93
27980;BME280;15315;50.836;4.430;2023-06-14T10:33:09;100979.63;;;28.22;34.54
27980;BME280;15315;50.836;4.430;2023-06-14T10:43:23;100984.97;;;27.91;32.89
27980;BME280;15315;50.836;4.430;2023-06-14T10:53:24;100987.91;;;28.28;32.47
27980;BME280;15315;50.836;4.430;2023-06-14T11:03:51;100981.44;;;28.54;32.02
27980;BME280;15315;50.836;4.430;2023-06-14T11:13:55;100978.50;;;28.36;31.87
27980;BME280;15315;50.836;4.430;2023-06-14T11:23:55;100976.66;;;27.91;31.80
27980;BME280;15315;50.836;4.430;2023-06-14T11:33:57;100975.50;;;28.38;32.21
27980;BME280;15315;50.836;4.430;2023-06-14T11:44:00;100971.34;;;27.76;32.07
27980;BME280;15315;50.836;4.430;2023-06-14T11:54:02;100969.63;;;27.88;32.10
27980;BME280;15315;50.836;4.430;2023-06-14T12:04:03;100973.13;;;28.41;31.89
27980;BME280;15315;50.836;4.430;2023-06-14T12:14:08;100971.38;;;28.66;31.30
27980;BME280;15315;50.836;4.430;2023-06-14T12:24:09;100972.72;;;28.95;30.56
27980;BME280;15315;50.836;4.430;2023-06-14T12:34:12;100978.06;;;28.52;30.86
27980;BME280;15315;50.836;4.430;2023-06-14T12:44:12;100974.63;;;28.50;30.42
27980;BME280;15315;50.836;4.430;2023-06-14T12:54:13;100971.50;;;28.27;30.24
27980;BME280;15315;50.836;4.430;2023-06-14T13:04:15;100979.97;;;28.45;30.63
27980;BME280;15315;50.836;4.430;2023-06-14T13:14:15;100973.78;;;28.43;30.14
27980;BME280;15315;50.836;4.430;2023-06-14T13:24:16;100967.81;;;28.40;30.11
27980;BME280;15315;50.836;4.430;2023-06-14T13:34:17;100966.06;;;28.65;30.26
27980;BME280;15315;50.836;4.430;2023-06-14T13:44:17;100966.50;;;28.49;29.29
27980;BME280;15315;50.836;4.430;2023-06-14T13:54:21;100977.09;;;28.78;28.76
27980;BME280;15315;50.836;4.430;2023-06-14T14:04:21;100969.34;;;28.86;28.59
27980;BME280;15315;50.836;4.430;2023-06-14T14:14:22;100973.03;;;29.18;27.84
27980;BME280;15315;50.836;4.430;2023-06-14T14:24:23;100967.41;;;28.36;28.04
27980;BME280;15315;50.836;4.430;2023-06-14T14:34:24;100975.56;;;28.18;28.17
27980;BME280;15315;50.836;4.430;2023-06-14T14:44:25;100972.88;;;28.62;28.04
27980;BME280;15315;50.836;4.430;2023-06-14T14:54:25;100974.47;;;28.32;27.85
27980;BME280;15315;50.836;4.430;2023-06-14T15:04:26;100974.50;;;28.76;27.64
27980;BME280;15315;50.836;4.430;2023-06-14T15:14:26;100970.38;;;28.41;27.78
27980;BME280;15315;50.836;4.430;2023-06-14T15:24:26;100968.34;;;29.19;27.74
27980;BME280;15315;50.836;4.430;2023-06-14T15:34:27;100965.78;;;29.73;27.12
27980;BME280;15315;50.836;4.430;2023-06-14T15:44:27;100968.22;;;28.94;27.72
27980;BME280;15315;50.836;4.430;2023-06-14T15:54:28;100964.06;;;31.35;26.32
27980;BME280;15315;50.836;4.430;2023-06-14T16:04:28;100961.28;;;37.37;22.04
27980;BME280;15315;50.836;4.430;2023-06-14T16:14:29;100970.13;;;39.97;19.18
27980;BME280;15315;50.836;4.430;2023-06-14T16:24:29;100975.09;;;42.25;18.62
27980;BME280;15315;50.836;4.430;2023-06-14T16:34:30;100971.84;;;41.86;18.53
27980;BME280;15315;50.836;4.430;2023-06-14T16:44:32;100973.91;;;43.21;17.86
27980;BME280;15315;50.836;4.430;2023-06-14T16:54:33;100980.69;;;42.44;18.20
27980;BME280;15315;50.836;4.430;2023-06-14T17:04:33;100986.84;;;43.00;17.23
27980;BME280;15315;50.836;4.430;2023-06-14T17:14:34;101009.03;;;42.85;16.79
27980;BME280;15315;50.836;4.430;2023-06-14T17:24:34;101002.84;;;43.46;16.74
27980;BME280;15315;50.836;4.430;2023-06-14T17:34:34;101008.88;;;42.22;16.94
27980;BME280;15315;50.836;4.430;2023-06-14T17:44:35;101008.78;;;42.27;17.08
27980;BME280;15315;50.836;4.430;2023-06-14T17:54:36;101020.22;;;39.86;17.97
27980;BME280;15315;50.836;4.430;2023-06-14T18:04:36;101019.81;;;36.73;19.25
27980;BME280;15315;50.836;4.430;2023-06-14T18:14:37;101024.50;;;34.10;21.92
27980;BME280;15315;50.836;4.430;2023-06-14T18:24:37;101026.34;;;32.98;22.94
27980;BME280;15315;50.836;4.430;2023-06-14T18:34:38;101036.03;;;31.57;24.49
27980;BME280;15315;50.836;4.430;2023-06-14T18:44:38;101042.59;;;31.74;24.53
27980;BME280;15315;50.836;4.430;2023-06-14T18:54:39;101033.53;;;31.49;25.13
27980;BME280;15315;50.836;4.430;2023-06-14T19:04:39;101043.47;;;30.60;26.02
27980;BME280;15315;50.836;4.430;2023-06-14T19:14:40;101050.66;;;30.86;25.84
27980;BME280;15315;50.836;4.430;2023-06-14T19:24:40;101063.56;;;30.44;26.88
27980;BME280;15315;50.836;4.430;2023-06-14T19:34:41;101076.56;;;30.26;27.29
27980;BME280;15315;50.836;4.430;2023-06-14T19:44:45;101086.88;;;29.94;27.79
27980;BME280;15315;50.836;4.430;2023-06-14T19:54:46;101092.13;;;29.77;28.06
27980;BME280;15315;50.836;4.430;2023-06-14T20:04:47;101101.41;;;29.20;28.29
27980;BME280;15315;50.836;4.430;2023-06-14T20:14:47;101108.84;;;28.56;29.35
27980;BME280;15315;50.836;4.430;2023-06-14T20:24:49;101124.63;;;28.49;29.67
27980;BME280;15315;50.836;4.430;2023-06-14T20:34:50;101131.47;;;28.33;29.90
27980;BME280;15315;50.836;4.430;2023-06-14T20:44:51;101133.09;;;27.68;30.76
27980;BME280;15315;50.836;4.430;2023-06-14T20:54:52;101144.22;;;27.88;30.58
27980;BME280;15315;50.836;4.430;2023-06-14T21:04:54;101145.44;;;27.53;31.44
27980;BME280;15315;50.836;4.430;2023-06-14T21:14:55;101143.47;;;27.47;31.69
27980;BME280;15315;50.836;4.430;2023-06-14T21:24:55;101147.91;;;27.41;31.79
27980;BME280;15315;50.836;4.430;2023-06-14T21:34:56;101160.31;;;27.04;32.36
27980;BME280;15315;50.836;4.430;2023-06-14T21:44:56;101157.63;;;27.24;32.38
27980;BME280;15315;50.836;4.430;2023-06-14T21:54:57;101172.28;;;27.11;32.62
27980;BME280;15315;50.836;4.430;2023-06-14T22:04:57;101175.97;;;26.91;32.86
27980;BME280;15315;50.836;4.430;2023-06-14T22:14:57;101173.47;;;26.40;33.68
27980;BME280;15315;50.836;4.430;2023-06-14T22:24:58;101179.00;;;26.40;33.68
27980;BME280;15315;50.836;4.430;2023-06-14T22:34:58;101181.34;;;26.22;34.31
27980;BME280;15315;50.836;4.430;2023-06-14T22:45:03;101187.69;;;26.37;33.92
27980;BME280;15315;50.836;4.430;2023-06-14T22:55:04;101198.16;;;26.00;34.89
27980;BME280;15315;50.836;4.430;2023-06-14T23:05:05;101191.81;;;26.06;34.82
27980;BME280;15315;50.836;4.430;2023-06-14T23:15:06;101197.94;;;26.01;35.26
27980;BME280;15315;50.836;4.430;2023-06-14T23:25:08;101189.97;;;25.56;35.93
27980;BME280;15315;50.836;4.430;2023-06-14T23:35:09;101192.09;;;25.75;36.02
27980;BME280;15315;50.836;4.430;2023-06-14T23:45:10;101192.78;;;25.62;36.03
27980;BME280;15315;50.836;4.430;2023-06-14T23:55:11;101192.78;;;25.62;36.66
